createdAt,value
2019-05-23T00:01:15.940Z,9.73
2019-05-23T00:04:16.744Z,9.66
2019-05-23T00:07:11.533Z,9.61
2019-05-23T00:10:03.650Z,9.59
2019-05-23T00:12:55.129Z,9.50
2019-05-23T00:15:35.693Z,9.44
2019-05-23T00:18:08.123Z,9.45
2019-05-23T00:20:39.778Z,9.51
2019-05-23T00:23:13.397Z,9.56
2019-05-23T00:25:45.504Z,9.53
2019-05-23T00:28:17.628Z,9.53
2019-05-23T00:31:02.142Z,9.48
2019-05-23T00:33:35.057Z,9.47
2019-05-23T00:36:07.693Z,9.42
2019-05-23T00:38:39.923Z,9.37
2019-05-23T00:41:12.701Z,9.38
2019-05-23T00:43:44.962Z,9.38
2019-05-23T00:46:17.913Z,9.37
2019-05-23T00:48:51.091Z,9.36
2019-05-23T00:51:23.658Z,9.34
2019-05-23T00:53:56.385Z,9.31
2019-05-23T00:56:28.456Z,9.28
2019-05-23T00:59:00.481Z,9.24
2019-05-23T01:01:32.846Z,9.22
2019-05-23T01:04:04.875Z,9.21
2019-05-23T01:06:37.386Z,9.19
2019-05-23T01:09:08.933Z,9.16
2019-05-23T01:11:41.061Z,9.11
2019-05-23T01:14:13.097Z,9.06
2019-05-23T01:16:45.236Z,9.05
2019-05-23T01:19:17.458Z,9.04
2019-05-23T01:22:08.397Z,9.01
2019-05-23T01:24:41.711Z,8.98
2019-05-23T01:27:13.874Z,8.94
2019-05-23T01:29:50.163Z,8.92
2019-05-23T01:32:32.058Z,8.90
2019-05-23T01:35:04.911Z,8.92
2019-05-23T01:37:36.465Z,8.95
2019-05-23T01:40:08.725Z,8.94
2019-05-23T01:42:42.137Z,8.88
2019-05-23T01:45:16.572Z,8.87
2019-05-23T01:47:50.389Z,8.82
2019-05-23T01:50:25.336Z,8.77
2019-05-23T01:52:57.953Z,8.74
2019-05-23T01:55:29.750Z,8.71
2019-05-23T01:58:01.293Z,8.68
2019-05-23T02:00:34.030Z,8.66
2019-05-23T02:03:06.823Z,8.66
2019-05-23T02:05:38.862Z,8.64
2019-05-23T02:08:12.316Z,8.61
2019-05-23T02:10:44.827Z,8.58
2019-05-23T02:13:16.564Z,8.57
2019-05-23T02:15:49.772Z,8.56
2019-05-23T02:18:21.798Z,8.53
2019-05-23T02:20:53.952Z,8.49
2019-05-23T02:23:25.996Z,8.46
2019-05-23T02:25:59.490Z,8.44
2019-05-23T02:28:33.031Z,8.39
2019-05-23T02:31:05.439Z,8.36
2019-05-23T02:33:37.766Z,8.33
2019-05-23T02:36:09.915Z,8.26
2019-05-23T02:39:15.444Z,8.23
2019-05-23T02:41:55.714Z,8.21
2019-05-23T02:44:29.451Z,8.20
2019-05-23T02:47:19.403Z,8.17
2019-05-23T02:49:53.692Z,8.15
2019-05-23T02:52:44.068Z,8.15
2019-05-23T02:55:22.714Z,8.15
2019-05-23T02:57:56.707Z,8.15
2019-05-23T03:00:56.207Z,8.17
2019-05-23T03:03:35.459Z,8.20
2019-05-23T03:06:15.286Z,8.18
2019-05-23T03:08:48.750Z,8.19
2019-05-23T03:11:40.061Z,8.14
2019-05-23T03:14:13.501Z,8.12
2019-05-23T03:16:51.054Z,8.08
2019-05-23T03:19:51.800Z,8.09
2019-05-23T03:23:00.278Z,8.08
2019-05-23T03:26:35.706Z,8.06
2019-05-23T03:29:08.800Z,8.04
2019-05-23T03:31:46.884Z,8.02
2019-05-23T03:34:22.153Z,8.01
2019-05-23T03:36:53.736Z,7.98
2019-05-23T03:39:26.057Z,7.96
2019-05-23T03:41:57.659Z,7.96
2019-05-23T03:44:29.671Z,7.97
2019-05-23T03:47:02.521Z,7.96
2019-05-23T03:49:34.986Z,8.00
2019-05-23T03:52:08.319Z,8.00
2019-05-23T03:54:42.362Z,8.01
2019-05-23T03:57:15.139Z,8.03
2019-05-23T03:59:47.833Z,8.06
2019-05-23T04:02:22.581Z,8.13
2019-05-23T04:04:56.038Z,8.19
2019-05-23T04:07:28.202Z,8.25
2019-05-23T04:09:59.783Z,8.30
2019-05-23T04:12:31.657Z,8.33
2019-05-23T04:15:03.900Z,8.41
2019-05-23T04:17:36.332Z,8.41
2019-05-23T04:20:08.885Z,8.49
2019-05-23T04:22:40.506Z,8.52
2019-05-23T04:25:12.282Z,8.54
2019-05-23T04:27:43.875Z,8.56
2019-05-23T04:30:15.811Z,8.68
2019-05-23T04:32:47.418Z,8.74
2019-05-23T04:35:18.921Z,8.78
2019-05-23T04:37:50.610Z,8.83
2019-05-23T04:40:22.654Z,8.88
2019-05-23T04:42:54.402Z,8.93
2019-05-23T04:45:27.632Z,8.99
2019-05-23T04:48:00.372Z,9.11
2019-05-23T04:50:32.148Z,9.24
2019-05-23T04:53:04.367Z,9.37
2019-05-23T04:55:37.607Z,9.48
2019-05-23T04:58:09.959Z,9.56
2019-05-23T05:00:42.648Z,9.67
2019-05-23T05:03:18.405Z,9.75
2019-05-23T05:05:50.569Z,9.82
2019-05-23T05:08:22.218Z,9.92
2019-05-23T05:10:54.584Z,9.98
2019-05-23T05:13:26.803Z,10.00
2019-05-23T05:15:59.075Z,10.07
2019-05-23T05:18:30.722Z,10.14
2019-05-23T05:21:02.436Z,10.27
2019-05-23T05:23:34.098Z,10.46
2019-05-23T05:26:09.803Z,10.57
2019-05-23T05:28:41.738Z,10.68
2019-05-23T05:31:13.342Z,10.76
2019-05-23T05:33:44.903Z,10.84
2019-05-23T05:36:16.566Z,10.94
2019-05-23T05:38:48.417Z,11.01
2019-05-23T05:41:20.603Z,11.21
2019-05-23T05:43:52.470Z,11.46
2019-05-23T05:46:24.255Z,11.70
2019-05-23T05:48:56.199Z,11.96
2019-05-23T05:51:28.063Z,12.34
2019-05-23T05:54:01.346Z,12.75
2019-05-23T05:56:32.959Z,12.99
2019-05-23T05:59:04.651Z,13.29
2019-05-23T06:01:36.821Z,13.52
2019-05-23T06:04:09.170Z,13.78
2019-05-23T06:06:49.966Z,14.10
2019-05-23T06:09:23.703Z,14.38
2019-05-23T06:11:56.528Z,14.71
2019-05-23T06:14:28.189Z,14.99
2019-05-23T06:17:00.971Z,15.26
2019-05-23T06:19:33.044Z,15.54
2019-05-23T06:22:06.356Z,15.87
2019-05-23T06:24:46.953Z,16.15
2019-05-23T06:27:13.624Z,16.39
2019-05-23T06:29:45.684Z,16.57
2019-05-23T06:32:18.780Z,16.69
2019-05-23T06:34:52.414Z,16.98
2019-05-23T06:37:24.024Z,17.26
2019-05-23T06:39:56.677Z,17.41
2019-05-23T06:42:28.453Z,17.54
2019-05-23T06:45:00.007Z,17.68
2019-05-23T06:47:32.373Z,17.74
2019-05-23T06:50:04.103Z,18.05
2019-05-23T06:52:35.823Z,18.36
2019-05-23T06:55:07.654Z,18.59
2019-05-23T06:57:39.262Z,18.75
2019-05-23T07:00:13.164Z,18.94
2019-05-23T07:02:45.720Z,19.08
2019-05-23T07:05:21.921Z,19.28
2019-05-23T07:07:53.764Z,19.48
2019-05-23T07:10:25.592Z,19.50
2019-05-23T07:12:57.195Z,19.47
2019-05-23T07:15:29.779Z,19.56
2019-05-23T07:18:02.614Z,19.60
2019-05-23T07:20:34.204Z,19.84
2019-05-23T07:23:06.595Z,20.01
2019-05-23T07:25:38.151Z,20.21
2019-05-23T07:28:09.752Z,20.32
2019-05-23T07:30:41.356Z,20.39
2019-05-23T07:33:14.234Z,20.57
2019-05-23T07:35:45.841Z,20.77
2019-05-23T07:38:17.447Z,20.93
2019-05-23T07:40:50.028Z,20.98
2019-05-23T07:43:21.778Z,21.09
2019-05-23T07:45:57.592Z,21.21
2019-05-23T07:48:30.810Z,20.98
2019-05-23T07:51:02.403Z,20.81
2019-05-23T07:54:01.706Z,20.46
2019-05-23T07:56:34.274Z,20.19
2019-05-23T07:59:06.147Z,20.42
2019-05-23T08:01:39.803Z,20.38
2019-05-23T08:04:21.269Z,20.58
2019-05-23T08:06:48.983Z,20.97
2019-05-23T08:09:20.032Z,21.36
2019-05-23T08:11:51.787Z,21.58
2019-05-23T08:14:23.353Z,21.60
2019-05-23T08:16:55.157Z,21.34
2019-05-23T08:19:27.004Z,21.13
2019-05-23T08:21:58.607Z,20.88
2019-05-23T08:24:30.177Z,21.00
2019-05-23T08:27:01.768Z,21.27
2019-05-23T08:29:33.995Z,21.56
2019-05-23T08:32:05.697Z,21.56
2019-05-23T08:34:42.251Z,21.51
2019-05-23T08:37:12.477Z,21.19
2019-05-23T08:39:44.474Z,21.58
2019-05-23T08:42:16.272Z,22.06
2019-05-23T08:44:48.001Z,22.23
2019-05-23T08:47:19.788Z,22.01
2019-05-23T08:49:51.827Z,22.03
2019-05-23T08:52:23.581Z,21.74
2019-05-23T08:54:59.640Z,21.36
2019-05-23T08:57:32.411Z,21.20
2019-05-23T09:00:04.712Z,21.21
2019-05-23T09:02:37.250Z,21.34
2019-05-23T09:05:10.762Z,21.17
2019-05-23T09:07:43.438Z,20.96
2019-05-23T09:10:15.862Z,20.83
2019-05-23T09:12:47.808Z,20.68
2019-05-23T09:15:19.569Z,20.71
2019-05-23T09:17:53.842Z,20.77
2019-05-23T09:20:25.095Z,20.76
2019-05-23T09:22:56.857Z,20.82
2019-05-23T09:25:28.453Z,20.81
2019-05-23T09:28:00.401Z,21.02
2019-05-23T09:30:32.569Z,21.12
2019-05-23T09:33:05.837Z,21.32
2019-05-23T09:35:37.690Z,21.53
2019-05-23T09:38:09.270Z,21.77
2019-05-23T09:40:40.869Z,21.70
2019-05-23T09:43:12.529Z,21.66
2019-05-23T09:45:44.175Z,21.55
2019-05-23T09:48:15.821Z,21.70
2019-05-23T09:50:48.444Z,21.73
2019-05-23T09:53:21.377Z,21.73
2019-05-23T09:55:55.570Z,21.61
2019-05-23T09:58:26.537Z,21.68
2019-05-23T10:00:58.621Z,21.85
2019-05-23T10:03:30.229Z,21.81
2019-05-23T10:06:01.807Z,22.06
2019-05-23T10:08:33.773Z,22.31
2019-05-23T10:11:05.581Z,22.50
2019-05-23T10:13:39.489Z,22.75
2019-05-23T10:16:11.206Z,22.93
2019-05-23T10:18:43.988Z,23.19
2019-05-23T10:21:15.560Z,23.42
2019-05-23T10:23:47.464Z,23.03
2019-05-23T10:26:19.325Z,22.75
2019-05-23T10:28:50.906Z,22.70
2019-05-23T10:31:22.552Z,22.64
2019-05-23T10:33:54.137Z,22.48
2019-05-23T10:36:25.684Z,22.63
2019-05-23T10:38:57.364Z,22.82
2019-05-23T10:41:28.932Z,22.60
2019-05-23T10:44:00.686Z,22.36
2019-05-23T10:46:32.579Z,22.35
2019-05-23T10:49:04.363Z,22.35
2019-05-23T10:51:36.220Z,22.26
2019-05-23T10:54:08.435Z,22.21
2019-05-23T10:56:39.999Z,22.13
2019-05-23T10:59:11.598Z,22.40
2019-05-23T11:01:43.786Z,22.52
2019-05-23T11:04:15.469Z,22.66
2019-05-23T11:06:47.633Z,22.62
2019-05-23T11:09:36.211Z,22.36
2019-05-23T11:11:53.753Z,22.34
2019-05-23T11:14:25.661Z,22.54
2019-05-23T11:16:57.474Z,22.74
2019-05-23T11:19:29.668Z,22.76
2019-05-23T11:22:01.280Z,22.58
2019-05-23T11:24:32.943Z,22.23
2019-05-23T11:29:36.520Z,22.32
2019-05-23T11:32:10.928Z,22.36
2019-05-23T11:34:42.519Z,22.25
2019-05-23T11:37:14.104Z,22.14
2019-05-23T11:39:49.509Z,22.09
2019-05-23T11:42:19.028Z,22.16
2019-05-23T11:44:50.668Z,22.09
2019-05-23T11:47:23.017Z,22.08
2019-05-23T11:49:54.651Z,22.00
2019-05-23T11:54:56.929Z,22.44
2019-05-23T11:57:29.045Z,22.50
2019-05-23T12:00:02.070Z,22.46
2019-05-23T12:02:37.448Z,22.30
2019-05-23T12:05:13.139Z,22.39
2019-05-23T12:07:44.746Z,22.38
2019-05-23T12:10:17.790Z,22.44
2019-05-23T12:12:49.418Z,22.56
2019-05-23T12:15:28.610Z,22.64
2019-05-23T12:18:00.426Z,22.72
2019-05-23T12:20:32.070Z,22.73
2019-05-23T12:23:10.501Z,22.69
2019-05-23T12:25:37.933Z,22.68
2019-05-23T12:28:10.735Z,22.62
2019-05-23T12:30:42.613Z,22.61
2019-05-23T12:33:14.242Z,22.69
2019-05-23T12:35:45.803Z,22.71
2019-05-23T12:38:17.537Z,22.81
2019-05-23T12:40:49.221Z,22.68
2019-05-23T12:43:20.811Z,22.46
2019-05-23T12:45:52.409Z,22.45
2019-05-23T12:48:44.138Z,22.31
2019-05-23T12:51:16.441Z,22.40
2019-05-23T12:53:48.033Z,22.52
2019-05-23T12:56:19.900Z,22.59
2019-05-23T12:58:52.475Z,22.58
2019-05-23T13:01:25.705Z,22.69
2019-05-23T13:03:57.594Z,22.71
2019-05-23T13:06:29.235Z,22.76
2019-05-23T13:09:00.829Z,22.82
2019-05-23T13:11:32.597Z,22.96
2019-05-23T13:14:05.770Z,22.76
2019-05-23T13:16:37.663Z,22.55
2019-05-23T13:19:10.284Z,22.44
2019-05-23T13:21:42.049Z,22.31
2019-05-23T13:24:13.876Z,22.35
2019-05-23T13:26:45.657Z,22.45
2019-05-23T13:29:17.741Z,22.51
2019-05-23T13:31:49.648Z,22.47
2019-05-23T13:34:21.241Z,22.23
2019-05-23T13:39:24.071Z,22.38
2019-05-23T13:41:55.673Z,22.35
2019-05-23T13:44:33.401Z,22.40
2019-05-23T13:47:00.576Z,22.42
2019-05-23T13:49:32.439Z,22.40
2019-05-23T13:52:05.053Z,22.50
2019-05-23T13:54:37.171Z,22.60
2019-05-23T13:57:09.719Z,22.60
2019-05-23T13:59:41.515Z,22.61
2019-05-23T14:02:13.122Z,22.61
2019-05-23T14:04:44.955Z,22.60
2019-05-23T14:07:17.033Z,22.61
2019-05-23T14:09:48.779Z,22.54
2019-05-23T14:12:21.831Z,22.52
2019-05-23T14:14:53.765Z,22.56
2019-05-23T14:17:31.227Z,22.53
2019-05-23T14:20:02.795Z,22.56
2019-05-23T14:22:39.247Z,22.58
2019-05-23T14:25:10.816Z,22.61
2019-05-23T14:27:54.134Z,22.64
2019-05-23T14:30:44.587Z,22.66
2019-05-23T14:33:27.815Z,22.63
2019-05-23T14:36:00.345Z,22.63
2019-05-23T14:38:35.057Z,22.65
2019-05-23T14:41:07.064Z,22.65
2019-05-23T14:43:39.819Z,22.66
2019-05-23T14:46:16.621Z,22.61
2019-05-23T14:49:07.127Z,22.58
2019-05-23T14:52:04.564Z,22.57
2019-05-23T14:54:42.133Z,22.47
2019-05-23T14:57:14.425Z,22.34
2019-05-23T14:59:46.141Z,22.33
2019-05-23T15:02:20.718Z,22.37
2019-05-23T15:04:52.431Z,22.41
2019-05-23T15:07:24.217Z,22.39
2019-05-23T15:09:56.072Z,22.44
2019-05-23T15:12:28.130Z,22.41
2019-05-23T15:14:59.755Z,22.44
2019-05-23T15:17:31.355Z,22.43
2019-05-23T15:20:03.101Z,22.38
2019-05-23T15:22:34.810Z,22.26
2019-05-23T15:25:07.238Z,22.12
2019-05-23T15:27:39.927Z,22.09
2019-05-23T15:30:11.559Z,22.12
2019-05-23T15:32:43.213Z,22.15
2019-05-23T15:35:15.006Z,22.18
2019-05-23T15:37:46.741Z,22.18
2019-05-23T15:40:18.723Z,22.20
2019-05-23T15:42:50.358Z,22.23
2019-05-23T15:45:22.119Z,22.25
2019-05-23T15:47:54.383Z,22.29
2019-05-23T15:50:30.239Z,22.31
2019-05-23T15:53:39.188Z,22.33
2019-05-23T15:56:27.573Z,22.36
2019-05-23T15:58:54.465Z,22.34
2019-05-23T16:01:45.365Z,22.36
2019-05-23T16:04:19.474Z,22.32
2019-05-23T16:06:51.501Z,22.31
2019-05-23T16:09:30.205Z,22.31
2019-05-23T16:11:58.634Z,22.32
2019-05-23T16:14:30.335Z,22.24
2019-05-23T16:17:02.107Z,22.24
2019-05-23T16:19:34.019Z,22.22
2019-05-23T16:22:05.895Z,22.23
2019-05-23T16:24:37.714Z,22.26
2019-05-23T16:27:09.664Z,22.26
2019-05-23T16:29:41.447Z,22.27
2019-05-23T16:32:13.245Z,22.22
2019-05-23T16:34:44.881Z,22.22
2019-05-23T16:37:16.626Z,22.22
2019-05-23T16:39:50.253Z,22.24
2019-05-23T16:42:22.609Z,22.25
2019-05-23T16:44:54.203Z,22.26
2019-05-23T16:47:26.302Z,22.27
2019-05-23T16:49:57.892Z,22.22
2019-05-23T16:52:29.536Z,22.20
2019-05-23T16:55:02.451Z,22.17
2019-05-23T16:57:48.758Z,22.16
2019-05-23T17:00:53.130Z,22.15
2019-05-23T17:03:50.771Z,22.05
2019-05-23T17:06:41.448Z,22.03
2019-05-23T17:09:31.288Z,22.02
2019-05-23T17:12:18.142Z,21.96
2019-05-23T17:15:00.601Z,21.90
2019-05-23T17:18:01.606Z,21.87
2019-05-23T17:20:33.591Z,21.89
2019-05-23T17:23:19.417Z,21.88
2019-05-23T17:25:59.439Z,21.87
2019-05-23T17:28:36.409Z,21.86
2019-05-23T17:31:10.770Z,21.78
2019-05-23T17:33:42.475Z,21.72
2019-05-23T17:36:14.328Z,21.71
2019-05-23T17:38:46.037Z,21.72
2019-05-23T17:41:17.968Z,21.68
2019-05-23T17:43:49.674Z,21.66
2019-05-23T17:46:21.400Z,21.63
2019-05-23T17:48:52.987Z,21.58
2019-05-23T17:51:25.183Z,21.55
2019-05-23T17:53:56.805Z,21.46
2019-05-23T17:56:28.733Z,21.43
2019-05-23T17:59:00.532Z,21.41
2019-05-23T18:01:33.333Z,21.33
2019-05-23T18:04:05.372Z,21.28
2019-05-23T18:06:37.232Z,21.21
2019-05-23T18:09:11.526Z,21.12
2019-05-23T18:11:43.767Z,21.06
2019-05-23T18:14:15.933Z,20.95
2019-05-23T18:16:47.589Z,20.91
2019-05-23T18:19:20.357Z,20.85
2019-05-23T18:21:52.084Z,20.79
2019-05-23T18:24:24.701Z,20.71
2019-05-23T18:26:56.905Z,20.68
2019-05-23T18:29:28.945Z,20.61
2019-05-23T18:32:02.614Z,20.55
2019-05-23T18:34:35.137Z,20.50
2019-05-23T18:37:07.639Z,20.33
2019-05-23T18:39:39.905Z,20.26
2019-05-23T18:42:11.920Z,20.19
2019-05-23T18:44:44.326Z,20.12
2019-05-23T18:47:22.603Z,19.96
2019-05-23T18:49:54.590Z,19.87
2019-05-23T18:52:26.406Z,19.80
2019-05-23T18:54:58.143Z,19.70
2019-05-23T18:57:30.593Z,19.55
2019-05-23T19:00:02.361Z,19.39
2019-05-23T19:02:34.607Z,19.33
2019-05-23T19:05:08.516Z,19.24
2019-05-23T19:07:41.157Z,19.11
2019-05-23T19:10:13.804Z,19.06
2019-05-23T19:12:45.762Z,19.02
2019-05-23T19:15:18.158Z,18.93
2019-05-23T19:17:49.872Z,18.87
2019-05-23T19:20:21.669Z,18.81
2019-05-23T19:22:53.316Z,18.75
2019-05-23T19:25:25.415Z,18.71
2019-05-23T19:27:57.173Z,18.70
2019-05-23T19:30:28.894Z,18.61
2019-05-23T19:33:00.785Z,18.55
2019-05-23T19:35:33.100Z,18.53
2019-05-23T19:38:06.842Z,18.45
2019-05-23T19:40:39.194Z,18.41
2019-05-23T19:43:10.822Z,18.35
2019-05-23T19:45:42.603Z,18.30
2019-05-23T19:48:14.256Z,18.26
2019-05-23T19:50:46.064Z,18.18
2019-05-23T19:53:19.943Z,18.08
2019-05-23T19:55:51.589Z,18.01
2019-05-23T19:58:23.609Z,17.93
2019-05-23T20:00:55.270Z,17.90
2019-05-23T20:03:27.795Z,17.86
2019-05-23T20:05:59.864Z,17.81
2019-05-23T20:08:31.461Z,17.76
2019-05-23T20:11:03.576Z,17.67
2019-05-23T20:13:35.570Z,17.59
2019-05-23T20:16:07.769Z,17.56
2019-05-23T20:18:39.764Z,17.46
2019-05-23T20:21:11.469Z,17.38
2019-05-23T20:23:43.611Z,17.33
2019-05-23T20:26:15.403Z,17.25
2019-05-23T20:28:47.107Z,17.18
2019-05-23T20:31:18.946Z,17.11
2019-05-23T20:33:51.563Z,17.06
2019-05-23T20:36:23.233Z,17.00
2019-05-23T20:38:54.967Z,16.96
2019-05-23T20:41:27.557Z,16.89
2019-05-23T20:43:59.181Z,16.76
2019-05-23T20:46:30.977Z,16.69
2019-05-23T20:49:02.994Z,16.64
2019-05-23T20:51:34.839Z,16.59
2019-05-23T20:54:06.654Z,16.49
2019-05-23T20:56:38.257Z,16.44
2019-05-23T20:59:10.427Z,16.37
2019-05-23T21:01:42.343Z,16.28
2019-05-23T21:04:13.992Z,16.21
2019-05-23T21:06:45.581Z,16.13
2019-05-23T21:09:17.399Z,16.07
2019-05-23T21:11:49.159Z,16.02
2019-05-23T21:14:20.811Z,15.96
2019-05-23T21:16:52.421Z,15.84
2019-05-23T21:19:23.976Z,15.80
2019-05-23T21:21:55.638Z,15.74
2019-05-23T21:24:27.442Z,15.65
2019-05-23T21:26:59.093Z,15.60
2019-05-23T21:29:30.654Z,15.52
2019-05-23T21:32:02.301Z,15.47
2019-05-23T21:34:33.907Z,15.42
2019-05-23T21:37:05.529Z,15.37
2019-05-23T21:39:37.428Z,15.29
2019-05-23T21:42:09.122Z,15.26
2019-05-23T21:44:40.738Z,15.21
2019-05-23T21:47:12.729Z,15.17
2019-05-23T21:49:44.323Z,15.11
2019-05-23T21:52:16.135Z,15.06
2019-05-23T21:54:47.750Z,15.00
2019-05-23T21:57:19.365Z,14.97
2019-05-23T21:59:50.939Z,14.91
2019-05-23T22:02:31.214Z,14.91
2019-05-23T22:05:09.637Z,14.79
2019-05-23T22:07:41.511Z,14.72
2019-05-23T22:10:13.572Z,14.67
2019-05-23T22:12:45.248Z,14.62
2019-05-23T22:15:35.074Z,14.54
2019-05-23T22:18:07.323Z,14.51
2019-05-23T22:20:38.960Z,14.46
2019-05-23T22:23:10.943Z,14.43
2019-05-23T22:25:42.507Z,14.40
2019-05-23T22:28:14.093Z,14.32
2019-05-23T22:30:45.691Z,14.25
2019-05-23T22:33:18.980Z,14.15
2019-05-23T22:35:50.564Z,14.02
2019-05-23T22:38:22.546Z,14.00
2019-05-23T22:40:54.179Z,13.97
2019-05-23T22:43:25.806Z,13.94
2019-05-23T22:45:57.448Z,13.93
2019-05-23T22:48:29.021Z,13.88
2019-05-23T22:51:00.638Z,13.85
2019-05-23T22:53:32.202Z,13.78
2019-05-23T22:56:03.797Z,13.76
2019-05-23T22:58:35.365Z,13.73
2019-05-23T23:01:06.954Z,13.66
2019-05-23T23:03:38.520Z,13.63
2019-05-23T23:06:10.310Z,13.61
2019-05-23T23:08:41.915Z,13.57
2019-05-23T23:11:13.523Z,13.51
2019-05-23T23:13:45.347Z,13.50
2019-05-23T23:16:18.082Z,13.48
2019-05-23T23:18:49.841Z,13.45
2019-05-23T23:21:21.480Z,13.40
2019-05-23T23:23:53.056Z,13.34
2019-05-23T23:26:24.635Z,13.28
2019-05-23T23:28:56.412Z,13.30
2019-05-23T23:31:28.092Z,13.28
2019-05-23T23:33:59.773Z,13.27
2019-05-23T23:36:31.391Z,13.26
2019-05-23T23:39:02.953Z,13.23
2019-05-23T23:41:34.521Z,13.19
2019-05-23T23:44:08.739Z,13.18
2019-05-23T23:46:57.766Z,13.15
2019-05-23T23:49:47.308Z,13.13
2019-05-23T23:52:37.072Z,13.10
2019-05-23T23:55:27.712Z,13.06
2019-05-23T23:58:01.141Z,13.01
